createdAt,value
2023-04-02T00:01:17.198Z,10.25
2023-04-02T00:03:44.485Z,8.00
2023-04-02T00:06:30.117Z,9.52
2023-04-02T00:09:04.589Z,9.70
2023-04-02T00:11:35.180Z,10.55
2023-04-02T00:14:03.909Z,7.78
2023-04-02T00:16:31.121Z,10.17
2023-04-02T00:19:03.951Z,9.75
2023-04-02T00:21:38.872Z,11.00
2023-04-02T00:24:21.201Z,9.57
2023-04-02T00:26:53.016Z,8.00
2023-04-02T00:29:20.112Z,9.00
2023-04-02T00:31:49.871Z,8.02
2023-04-02T00:34:38.310Z,8.60
2023-04-02T00:37:05.554Z,11.32
2023-04-02T00:39:39.166Z,9.43
2023-04-02T00:42:06.365Z,10.87
2023-04-02T00:44:45.209Z,9.00
2023-04-02T00:47:24.410Z,10.95
2023-04-02T00:49:58.637Z,7.70
2023-04-02T00:52:29.611Z,7.65
2023-04-02T00:55:06.394Z,8.40
2023-04-02T00:57:33.795Z,9.13
2023-04-02T01:00:09.811Z,10.07
2023-04-02T01:02:40.745Z,10.05
2023-04-02T01:05:16.649Z,9.18
2023-04-02T01:07:58.344Z,10.27
2023-04-02T01:10:39.536Z,9.98
2023-04-02T01:13:19.676Z,9.05
2023-04-02T01:16:19.892Z,10.20
2023-04-02T01:19:01.994Z,9.95
2023-04-02T01:21:43.906Z,9.30
2023-04-02T01:24:13.993Z,11.32
2023-04-02T01:26:50.229Z,10.75
2023-04-02T01:29:27.528Z,8.73
2023-04-02T01:31:57.629Z,7.50
2023-04-02T01:34:26.872Z,10.40
2023-04-02T01:37:14.643Z,9.57
2023-04-02T01:39:53.300Z,7.75
2023-04-02T01:42:25.581Z,8.10
2023-04-02T01:44:54.258Z,9.57
2023-04-02T01:47:27.442Z,8.50
2023-04-02T01:50:01.007Z,8.05
2023-04-02T01:52:40.688Z,9.50
2023-04-02T01:55:13.002Z,9.15
2023-04-02T01:57:46.457Z,8.85
2023-04-02T02:00:15.206Z,6.57
2023-04-02T02:02:43.254Z,11.07
2023-04-02T02:05:14.449Z,8.57
2023-04-02T02:07:42.029Z,7.25
2023-04-02T02:10:15.230Z,9.57
2023-04-02T02:12:44.231Z,11.40
2023-04-02T02:15:19.863Z,8.43
2023-04-02T02:17:47.727Z,8.93
2023-04-02T02:20:14.902Z,8.65
2023-04-02T02:22:47.145Z,7.28
2023-04-02T02:25:30.837Z,6.17
2023-04-02T02:28:12.142Z,8.20
2023-04-02T02:30:56.028Z,7.13
2023-04-02T02:33:25.610Z,9.00
2023-04-02T02:36:03.027Z,9.45
2023-04-02T02:38:42.587Z,6.93
2023-04-02T02:41:26.440Z,7.95
2023-04-02T02:43:56.014Z,7.78
2023-04-02T02:46:24.926Z,7.22
2023-04-02T02:48:55.259Z,8.88
2023-04-02T02:51:29.236Z,7.27
2023-04-02T02:54:03.181Z,6.18
2023-04-02T02:56:33.897Z,7.05
2023-04-02T02:59:01.782Z,7.38
2023-04-02T03:01:31.060Z,6.03
2023-04-02T03:03:57.761Z,7.00
2023-04-02T03:06:24.504Z,7.90
2023-04-02T03:09:02.226Z,7.18
2023-04-02T03:11:36.054Z,7.85
2023-04-02T03:14:14.948Z,8.35
2023-04-02T03:16:47.049Z,8.30
2023-04-02T03:19:28.988Z,7.63
2023-04-02T03:22:03.793Z,7.35
2023-04-02T03:24:47.176Z,10.57
2023-04-02T03:27:19.856Z,6.85
2023-04-02T03:30:03.896Z,7.00
2023-04-02T03:32:35.943Z,7.45
2023-04-02T03:35:19.589Z,7.07
2023-04-02T03:37:52.998Z,7.85
2023-04-02T03:40:24.600Z,6.45
2023-04-02T03:42:55.205Z,5.53
2023-04-02T03:45:33.835Z,4.95
2023-04-02T03:48:07.284Z,5.15
2023-04-02T03:50:36.510Z,6.00
2023-04-02T03:53:04.674Z,5.40
2023-04-02T03:55:36.231Z,4.67
2023-04-02T03:58:20.631Z,4.47
2023-04-02T04:00:52.402Z,5.07
2023-04-02T04:03:42.233Z,6.40
2023-04-02T04:06:15.610Z,7.40
2023-04-02T04:08:50.333Z,4.87
2023-04-02T04:11:22.620Z,5.65
2023-04-02T04:14:15.078Z,8.05
2023-04-02T04:16:49.796Z,5.70
2023-04-02T04:19:29.087Z,6.55
2023-04-02T04:22:10.058Z,5.90
2023-04-02T04:24:39.374Z,5.75
2023-04-02T04:27:09.517Z,5.97
2023-04-02T04:29:51.730Z,6.28
2023-04-02T04:32:27.446Z,4.72
2023-04-02T04:35:08.285Z,5.23
2023-04-02T04:37:40.971Z,9.00
2023-04-02T04:40:28.382Z,5.35
2023-04-02T04:43:00.619Z,8.13
2023-04-02T04:46:12.800Z,3.63
2023-04-02T04:49:25.184Z,5.93
2023-04-02T04:51:56.167Z,6.82
2023-04-02T04:54:26.035Z,7.00
2023-04-02T04:56:58.166Z,7.03
2023-04-02T04:59:39.915Z,6.18
2023-04-02T05:02:12.152Z,8.83
2023-04-02T05:04:41.242Z,5.80
2023-04-02T05:07:25.909Z,7.47
2023-04-02T05:10:06.414Z,5.22
2023-04-02T05:12:51.028Z,4.78
2023-04-02T05:15:42.121Z,7.47
2023-04-02T05:18:16.544Z,7.35
2023-04-02T05:20:56.404Z,5.40
2023-04-02T05:23:34.198Z,5.50
2023-04-02T05:26:09.230Z,8.85
2023-04-02T05:28:46.230Z,7.63
2023-04-02T05:31:19.939Z,4.85
2023-04-02T05:33:49.030Z,4.97
2023-04-02T05:36:24.903Z,5.93
2023-04-02T05:38:53.176Z,6.13
2023-04-02T05:41:27.562Z,6.10
2023-04-02T05:44:07.885Z,5.90
2023-04-02T05:46:40.923Z,5.15
2023-04-02T05:49:13.873Z,5.72
2023-04-02T05:51:45.957Z,6.50
2023-04-02T05:54:23.112Z,5.93
2023-04-02T05:56:56.205Z,6.38
2023-04-02T05:59:30.981Z,6.65
2023-04-02T06:02:03.807Z,7.28
2023-04-02T06:04:44.795Z,5.75
2023-04-02T06:07:16.498Z,7.47
2023-04-02T06:09:49.139Z,5.00
2023-04-02T06:12:35.404Z,6.22
2023-04-02T06:15:01.986Z,5.75
2023-04-02T06:17:28.934Z,8.60
2023-04-02T06:19:58.012Z,6.07
2023-04-02T06:22:32.741Z,4.38
2023-04-02T06:25:05.737Z,4.57
2023-04-02T06:27:34.352Z,6.35
2023-04-02T06:30:06.192Z,5.75
2023-04-02T06:32:33.066Z,6.00
2023-04-02T06:34:59.511Z,6.22
2023-04-02T06:37:37.579Z,5.40
2023-04-02T06:40:26.332Z,5.78
2023-04-02T06:42:59.467Z,5.90
2023-04-02T06:45:33.768Z,6.47
2023-04-02T06:48:02.795Z,5.85
2023-04-02T06:50:37.845Z,5.20
2023-04-02T06:53:09.567Z,6.65
2023-04-02T06:55:48.829Z,5.38
2023-04-02T06:58:17.280Z,5.67
2023-04-02T07:00:46.637Z,5.97
2023-04-02T07:03:16.202Z,6.55
2023-04-02T07:05:43.184Z,5.18
2023-04-02T07:08:09.701Z,5.15
2023-04-02T07:10:36.235Z,5.17
2023-04-02T07:13:02.682Z,4.53
2023-04-02T07:15:29.102Z,5.18
2023-04-02T07:17:59.133Z,5.03
2023-04-02T07:20:31.266Z,5.70
2023-04-02T07:22:58.088Z,5.47
2023-04-02T07:25:26.221Z,5.80
2023-04-02T07:27:53.950Z,4.53
2023-04-02T07:30:20.437Z,5.22
2023-04-02T07:32:46.950Z,4.55
2023-04-02T07:35:13.834Z,6.03
2023-04-02T07:37:40.285Z,5.68
2023-04-02T07:40:18.340Z,5.85
2023-04-02T07:42:45.285Z,6.43
2023-04-02T07:45:12.000Z,7.30
2023-04-02T07:47:38.694Z,8.10
2023-04-02T07:50:05.866Z,5.78
2023-04-02T07:52:32.249Z,4.53
2023-04-02T07:54:58.616Z,4.68
2023-04-02T07:57:24.993Z,4.72
2023-04-02T07:59:51.482Z,4.90
2023-04-02T08:02:21.446Z,4.82
2023-04-02T08:04:48.427Z,6.10
2023-04-02T08:07:14.775Z,3.83
2023-04-02T08:09:41.147Z,7.50
2023-04-02T08:12:07.842Z,5.57
2023-04-02T08:14:34.203Z,6.93
2023-04-02T08:17:00.664Z,5.07
2023-04-02T08:19:28.102Z,4.93
2023-04-02T08:21:55.012Z,3.00
2023-04-02T08:24:21.524Z,6.23
2023-04-02T08:26:49.925Z,6.40
2023-04-02T08:29:16.313Z,3.97
2023-04-02T08:31:42.840Z,3.92
2023-04-02T08:34:09.749Z,5.78
2023-04-02T08:36:38.938Z,3.97
2023-04-02T08:39:10.901Z,3.92
2023-04-02T08:41:44.351Z,4.75
2023-04-02T08:44:16.404Z,5.03
2023-04-02T08:46:45.834Z,5.75
2023-04-02T08:49:19.620Z,4.33
2023-04-02T08:51:47.333Z,4.53
2023-04-02T08:54:29.399Z,6.65
2023-04-02T08:57:04.170Z,4.22
2023-04-02T08:59:40.055Z,6.47
2023-04-02T09:02:12.196Z,5.30
2023-04-02T09:04:40.907Z,3.92
2023-04-02T09:07:13.454Z,4.05
2023-04-02T09:09:40.357Z,6.63
2023-04-02T09:12:17.675Z,5.13
2023-04-02T09:15:04.520Z,6.07
2023-04-02T09:17:39.755Z,5.47
2023-04-02T09:20:18.446Z,4.80
2023-04-02T09:22:47.267Z,6.30
2023-04-02T09:25:19.001Z,6.07
2023-04-02T09:27:49.762Z,3.90
2023-04-02T09:30:31.377Z,4.57
2023-04-02T09:33:07.262Z,4.72
2023-04-02T09:35:36.830Z,4.25
2023-04-02T09:38:28.941Z,6.70
2023-04-02T09:40:55.272Z,3.67
2023-04-02T09:43:26.780Z,4.65
2023-04-02T09:46:05.814Z,4.45
2023-04-02T09:48:39.394Z,3.53
2023-04-02T09:51:21.660Z,4.57
2023-04-02T09:54:04.656Z,3.57
2023-04-02T09:56:36.689Z,6.95
2023-04-02T09:59:13.573Z,4.90
2023-04-02T10:01:41.459Z,5.40
2023-04-02T10:04:34.096Z,3.83
2023-04-02T10:07:00.509Z,5.43
2023-04-02T10:09:36.292Z,5.80
2023-04-02T10:12:06.675Z,4.32
2023-04-02T10:14:45.677Z,5.80
2023-04-02T10:17:17.790Z,4.00
2023-04-02T10:19:55.028Z,4.60
2023-04-02T10:22:23.215Z,6.55
2023-04-02T10:24:50.734Z,5.40
2023-04-02T10:27:39.540Z,7.50
2023-04-02T10:30:19.140Z,5.45
2023-04-02T10:33:03.583Z,5.20
2023-04-02T10:35:46.194Z,5.50
2023-04-02T10:38:34.629Z,5.88
2023-04-02T10:41:18.992Z,6.55
2023-04-02T10:44:06.446Z,5.07
2023-04-02T10:47:08.011Z,4.93
2023-04-02T10:50:02.218Z,6.75
2023-04-02T10:52:33.114Z,4.38
2023-04-02T10:55:13.365Z,4.28
2023-04-02T10:57:41.664Z,5.97
2023-04-02T11:00:11.216Z,6.60
2023-04-02T11:03:01.053Z,5.40
2023-04-02T11:05:50.340Z,5.43
2023-04-02T11:08:25.793Z,6.07
2023-04-02T11:10:52.113Z,4.18
2023-04-02T11:13:26.897Z,4.23
2023-04-02T11:15:53.811Z,4.70
2023-04-02T11:18:27.647Z,4.68
2023-04-02T11:21:00.819Z,4.10
2023-04-02T11:23:30.594Z,4.57
2023-04-02T11:26:29.797Z,3.93
2023-04-02T11:29:15.009Z,4.65
2023-04-02T11:31:43.289Z,4.22
2023-04-02T11:34:13.806Z,5.10
2023-04-02T11:36:55.377Z,5.07
2023-04-02T11:39:53.912Z,3.73
2023-04-02T11:42:33.661Z,4.40
2023-04-02T11:45:26.418Z,4.07
2023-04-02T11:48:02.187Z,4.43
2023-04-02T11:50:41.290Z,3.95
2023-04-02T11:53:11.486Z,6.17
2023-04-02T11:55:43.583Z,4.07
2023-04-02T11:58:34.477Z,5.43
2023-04-02T12:01:22.624Z,4.65
2023-04-02T12:04:14.252Z,5.40
2023-04-02T12:06:46.738Z,3.43
2023-04-02T12:09:21.097Z,5.20
2023-04-02T12:11:49.163Z,4.18
2023-04-02T12:14:35.301Z,3.65
2023-04-02T12:17:15.358Z,5.20
2023-04-02T12:19:50.345Z,4.37
2023-04-02T12:22:23.753Z,4.43
2023-04-02T12:24:50.977Z,4.32
2023-04-02T12:27:24.005Z,3.88
2023-04-02T12:29:51.535Z,3.83
2023-04-02T12:32:32.718Z,4.87
2023-04-02T12:35:04.594Z,5.97
2023-04-02T12:37:31.078Z,4.97
2023-04-02T12:40:00.315Z,4.28
2023-04-02T12:42:33.560Z,3.20
2023-04-02T12:45:00.625Z,3.17
2023-04-02T12:47:28.007Z,3.70
2023-04-02T12:49:56.841Z,4.97
2023-04-02T12:52:28.625Z,2.83
2023-04-02T12:55:00.768Z,4.85
2023-04-02T12:57:30.056Z,4.17
2023-04-02T13:00:01.455Z,4.22
2023-04-02T13:02:30.948Z,4.60
2023-04-02T13:05:01.384Z,6.32
2023-04-02T13:07:33.395Z,4.32
2023-04-02T13:10:01.711Z,3.97
2023-04-02T13:12:37.449Z,4.07
2023-04-02T13:15:06.766Z,3.92
2023-04-02T13:17:42.416Z,3.65
2023-04-02T13:20:38.535Z,3.47
2023-04-02T13:23:23.858Z,3.07
2023-04-02T13:25:50.429Z,3.00
2023-04-02T13:28:16.940Z,3.35
2023-04-02T13:30:43.400Z,4.38
2023-04-02T13:33:09.810Z,3.90
2023-04-02T13:35:36.433Z,3.57
2023-04-02T13:38:03.943Z,3.33
2023-04-02T13:40:31.080Z,4.25
2023-04-02T13:42:57.604Z,5.13
2023-04-02T13:45:31.358Z,4.53
2023-04-02T13:48:01.002Z,3.90
2023-04-02T13:50:29.874Z,4.28
2023-04-02T13:52:59.293Z,5.88
2023-04-02T13:55:30.289Z,3.67
2023-04-02T13:57:57.340Z,4.35
2023-04-02T14:00:24.060Z,2.90
2023-04-02T14:02:59.115Z,3.40
2023-04-02T14:05:30.648Z,3.85
2023-04-02T14:08:02.525Z,3.55
2023-04-02T14:10:40.844Z,3.60
2023-04-02T14:13:28.920Z,3.43
2023-04-02T14:16:05.894Z,2.95
2023-04-02T14:18:50.891Z,4.28
2023-04-02T14:21:35.699Z,3.50
2023-04-02T14:24:27.976Z,3.53
2023-04-02T14:27:00.344Z,3.77
2023-04-02T14:29:53.944Z,3.38
2023-04-02T14:32:41.579Z,4.15
2023-04-02T14:35:13.832Z,3.40
2023-04-02T14:37:57.999Z,3.22
2023-04-02T14:40:35.630Z,2.70
2023-04-02T14:43:11.652Z,3.65
2023-04-02T14:45:58.514Z,3.15
2023-04-02T14:48:30.838Z,3.25
2023-04-02T14:51:06.235Z,3.33
2023-04-02T14:53:48.922Z,2.87
2023-04-02T14:56:17.714Z,5.03
2023-04-02T14:58:48.659Z,3.90
2023-04-02T15:01:25.443Z,3.40
2023-04-02T15:04:10.908Z,4.13
2023-04-02T15:06:43.648Z,4.13
2023-04-02T15:09:19.154Z,3.83
2023-04-02T15:11:52.764Z,4.50
2023-04-02T15:14:34.972Z,4.13
2023-04-02T15:17:01.446Z,4.80
2023-04-02T15:19:27.819Z,3.10
2023-04-02T15:22:18.430Z,3.42
2023-04-02T15:25:20.950Z,3.35
2023-04-02T15:28:31.907Z,3.35
2023-04-02T15:31:05.946Z,3.05
2023-04-02T15:33:43.405Z,3.27
2023-04-02T15:36:36.819Z,4.32
2023-04-02T15:39:35.025Z,3.42
2023-04-02T15:42:14.808Z,4.47
2023-04-02T15:44:56.142Z,4.25
2023-04-02T15:47:36.876Z,3.53
2023-04-02T15:50:44.709Z,3.80
2023-04-02T15:53:39.250Z,3.97
2023-04-02T15:56:45.194Z,4.82
2023-04-02T15:59:34.763Z,3.88
2023-04-02T16:02:07.269Z,3.93
2023-04-02T16:04:42.737Z,3.28
2023-04-02T16:07:40.641Z,3.60
2023-04-02T16:10:40.926Z,3.50
2023-04-02T16:13:35.576Z,2.97
2023-04-02T16:16:08.297Z,3.93
2023-04-02T16:18:59.113Z,4.20
2023-04-02T16:21:32.436Z,4.70
2023-04-02T16:23:59.034Z,3.75
2023-04-02T16:26:58.875Z,3.35
2023-04-02T16:29:53.324Z,3.43
2023-04-02T16:32:59.979Z,3.80
2023-04-02T16:38:22.182Z,2.35
2023-04-02T16:41:08.744Z,4.03
2023-04-02T16:43:57.551Z,4.87
2023-04-02T16:46:39.843Z,3.33
2023-04-02T16:49:12.357Z,3.05
2023-04-02T16:51:44.664Z,3.65
2023-04-02T16:54:35.553Z,3.03
2023-04-02T16:57:01.901Z,4.33
2023-04-02T16:59:53.424Z,3.83
2023-04-02T17:02:43.050Z,5.07
2023-04-02T17:05:49.849Z,4.60
2023-04-02T17:08:30.133Z,3.88
2023-04-02T17:11:09.742Z,4.20
2023-04-02T17:13:41.848Z,3.90
2023-04-02T17:16:28.023Z,4.68
2023-04-02T17:18:58.331Z,3.13
2023-04-02T17:21:27.250Z,3.40
2023-04-02T17:24:11.767Z,3.20
2023-04-02T17:26:38.448Z,4.13
2023-04-02T17:29:12.769Z,2.78
2023-04-02T17:31:40.956Z,2.95
2023-04-02T17:34:16.937Z,2.75
2023-04-02T17:36:55.508Z,3.40
2023-04-02T17:39:35.552Z,3.70
2023-04-02T17:42:07.954Z,3.40
2023-04-02T17:44:56.217Z,4.47
2023-04-02T17:47:28.844Z,4.80
2023-04-02T17:50:16.829Z,3.20
2023-04-02T17:52:59.685Z,3.65
2023-04-02T17:55:34.145Z,2.83
2023-04-02T17:58:19.279Z,3.45
2023-04-02T18:01:04.873Z,3.83
2023-04-02T18:03:47.487Z,3.80
2023-04-02T18:06:24.882Z,4.68
2023-04-02T18:09:00.529Z,3.60
2023-04-02T18:11:57.449Z,4.30
2023-04-02T18:14:46.300Z,3.35
2023-04-02T18:17:44.675Z,3.17
2023-04-02T18:20:28.662Z,3.28
2023-04-02T18:23:08.115Z,3.45
2023-04-02T18:25:49.479Z,4.32
2023-04-02T18:28:21.726Z,4.25
2023-04-02T18:31:12.488Z,4.30
2023-04-02T18:34:06.758Z,3.38
2023-04-02T18:36:59.458Z,3.83
2023-04-02T18:39:45.301Z,4.22
2023-04-02T18:42:14.708Z,3.45
2023-04-02T18:45:03.146Z,5.27
2023-04-02T18:48:04.170Z,3.47
2023-04-02T18:50:34.179Z,4.55
2023-04-02T18:53:16.440Z,5.13
2023-04-02T18:55:56.761Z,4.88
2023-04-02T18:58:29.661Z,4.73
2023-04-02T19:00:58.304Z,4.88
2023-04-02T19:03:39.665Z,4.55
2023-04-02T19:06:11.590Z,3.97
2023-04-02T19:08:56.421Z,4.75
2023-04-02T19:11:31.618Z,4.60
2023-04-02T19:14:17.022Z,4.45
2023-04-02T19:17:02.561Z,4.63
2023-04-02T19:19:37.988Z,3.70
2023-04-02T19:22:29.636Z,4.00
2023-04-02T19:25:17.572Z,7.10
2023-04-02T19:27:53.785Z,5.18
2023-04-02T19:30:57.182Z,5.13
2023-04-02T19:33:39.082Z,4.13
2023-04-02T19:36:27.616Z,3.97
2023-04-02T19:39:28.108Z,3.97
2023-04-02T19:42:06.731Z,4.15
2023-04-02T19:44:33.272Z,4.45
2023-04-02T19:46:59.890Z,5.22
2023-04-02T19:49:30.447Z,6.00
2023-04-02T19:51:57.049Z,5.57
2023-04-02T19:54:23.494Z,3.80
2023-04-02T19:56:50.119Z,6.25
2023-04-02T19:59:18.430Z,5.78
2023-04-02T20:01:46.458Z,4.10
2023-04-02T20:04:13.171Z,4.83
2023-04-02T20:06:39.667Z,3.95
2023-04-02T20:09:07.465Z,4.97
2023-04-02T20:11:36.072Z,3.60
2023-04-02T20:14:02.489Z,4.72
2023-04-02T20:16:28.998Z,4.13
2023-04-02T20:18:55.776Z,4.38
2023-04-02T20:21:22.196Z,3.78
2023-04-02T20:23:53.320Z,4.32
2023-04-02T20:26:19.782Z,3.40
2023-04-02T20:28:46.374Z,5.30
2023-04-02T20:31:16.089Z,3.63
2023-04-02T20:33:44.214Z,4.35
2023-04-02T20:36:13.474Z,5.78
2023-04-02T20:38:39.899Z,5.97
2023-04-02T20:41:07.588Z,5.70
2023-04-02T20:43:34.595Z,4.60
2023-04-02T20:46:04.478Z,6.15
2023-04-02T20:48:32.275Z,4.05
2023-04-02T20:51:01.047Z,5.45
2023-04-02T20:53:32.336Z,4.20
2023-04-02T20:56:13.017Z,5.03
2023-04-02T20:58:40.580Z,5.10
2023-04-02T21:01:14.078Z,4.53
2023-04-02T21:03:40.728Z,4.32
2023-04-02T21:06:19.091Z,4.00
2023-04-02T21:08:46.104Z,4.13
2023-04-02T21:11:13.137Z,5.90
2023-04-02T21:13:42.416Z,4.72
2023-04-02T21:16:19.421Z,4.43
2023-04-02T21:18:46.895Z,4.80
2023-04-02T21:21:14.451Z,3.75
2023-04-02T21:23:42.767Z,5.05
2023-04-02T21:26:12.581Z,3.70
2023-04-02T21:28:38.995Z,5.80
2023-04-02T21:31:07.080Z,3.93
2023-04-02T21:33:42.009Z,4.13
2023-04-02T21:36:16.714Z,4.30
2023-04-02T21:38:49.247Z,4.75
2023-04-02T21:41:22.276Z,4.70
2023-04-02T21:43:49.004Z,3.43
2023-04-02T21:46:17.707Z,3.35
2023-04-02T21:48:44.663Z,4.25
2023-04-02T21:51:14.089Z,3.45
2023-04-02T21:53:41.067Z,3.50
2023-04-02T21:56:11.300Z,5.13
2023-04-02T21:58:37.802Z,3.40
2023-04-02T22:01:07.144Z,2.65
2023-04-02T22:03:35.673Z,4.47
2023-04-02T22:06:10.412Z,3.55
2023-04-02T22:08:38.313Z,4.50
2023-04-02T22:11:06.603Z,3.40
2023-04-02T22:13:33.455Z,3.97
2023-04-02T22:16:02.043Z,2.90
2023-04-02T22:18:28.413Z,3.97
2023-04-02T22:20:56.630Z,4.03
2023-04-02T22:23:25.535Z,3.58
2023-04-02T22:25:56.899Z,4.72
2023-04-02T22:28:23.570Z,3.90
2023-04-02T22:30:51.098Z,4.28
2023-04-02T22:33:17.666Z,5.50
2023-04-02T22:35:44.453Z,3.33
2023-04-02T22:38:11.143Z,2.92
2023-04-02T22:40:37.931Z,3.90
2023-04-02T22:43:04.514Z,3.13
2023-04-02T22:45:30.897Z,4.30
2023-04-02T22:47:57.273Z,2.72
2023-04-02T22:50:24.193Z,3.70
2023-04-02T22:52:50.590Z,3.88
2023-04-02T22:55:17.920Z,2.97
2023-04-02T22:57:44.991Z,3.77
2023-04-02T23:00:15.243Z,3.65
2023-04-02T23:02:42.126Z,5.63
2023-04-02T23:05:08.929Z,3.45
2023-04-02T23:07:35.389Z,3.80
2023-04-02T23:10:03.944Z,3.03
2023-04-02T23:12:31.803Z,3.38
2023-04-02T23:14:58.231Z,2.92
2023-04-02T23:17:24.649Z,3.45
2023-04-02T23:19:51.047Z,2.78
2023-04-02T23:22:17.488Z,3.07
2023-04-02T23:24:43.858Z,4.63
2023-04-02T23:27:10.218Z,4.32
2023-04-02T23:29:36.664Z,3.25
2023-04-02T23:32:03.079Z,3.90
2023-04-02T23:34:29.458Z,3.97
2023-04-02T23:36:55.896Z,4.88
2023-04-02T23:39:22.953Z,4.07
2023-04-02T23:41:49.348Z,4.03
2023-04-02T23:44:15.857Z,3.10
2023-04-02T23:46:42.352Z,4.57
2023-04-02T23:49:11.062Z,5.07
2023-04-02T23:51:37.406Z,4.38
2023-04-02T23:54:04.027Z,4.35
2023-04-02T23:56:30.490Z,3.35
2023-04-02T23:58:56.963Z,2.97
